sensor_id;sensor_type;location;lat;lon;timestamp;P1;durP1;ratioP1;P2;durP2;ratioP2
36379;SDS011;22411;53.016;18.632;2023-09-19T00:00:37;14.07;;;10.52;;
36379;SDS011;22411;53.016;18.632;2023-09-19T00:03:23;12.18;;;10.68;;
36379;SDS011;22411;53.016;18.632;2023-09-19T00:05:51;12.65;;;10.95;;
36379;SDS011;22411;53.016;18.632;2023-09-19T00:08:17;11.82;;;10.63;;
36379;SDS011;22411;53.016;18.632;2023-09-19T00:10:47;13.98;;;10.80;;
36379;SDS011;22411;53.016;18.632;2023-09-19T00:13:13;13.02;;;10.52;;
36379;SDS011;22411;53.016;18.632;2023-09-19T00:15:41;14.27;;;10.95;;
36379;SDS011;22411;53.016;18.632;2023-09-19T00:18:13;14.18;;;11.35;;
36379;SDS011;22411;53.016;18.632;2023-09-19T00:20:41;15.68;;;11.48;;
36379;SDS011;22411;53.016;18.632;2023-09-19T00:23:07;13.00;;;10.48;;
36379;SDS011;22411;53.016;18.632;2023-09-19T00:25:36;12.57;;;10.85;;
36379;SDS011;22411;53.016;18.632;2023-09-19T00:28:03;14.20;;;11.43;;
36379;SDS011;22411;53.016;18.632;2023-09-19T00:30:30;15.18;;;10.95;;
36379;SDS011;22411;53.016;18.632;2023-09-19T00:32:56;13.45;;;10.88;;
36379;SDS011;22411;53.016;18.632;2023-09-19T00:35:22;13.45;;;10.68;;
36379;SDS011;22411;53.016;18.632;2023-09-19T00:37:51;15.85;;;12.07;;
36379;SDS011;22411;53.016;18.632;2023-09-19T00:40:17;13.02;;;10.80;;
36379;SDS011;22411;53.016;18.632;2023-09-19T00:42:44;12.77;;;11.02;;
36379;SDS011;22411;53.016;18.632;2023-09-19T00:45:11;12.82;;;10.90;;
36379;SDS011;22411;53.016;18.632;2023-09-19T00:47:48;16.05;;;10.85;;
36379;SDS011;22411;53.016;18.632;2023-09-19T00:50:17;14.82;;;11.40;;
36379;SDS011;22411;53.016;18.632;2023-09-19T00:52:44;12.57;;;11.25;;
36379;SDS011;22411;53.016;18.632;2023-09-19T00:55:12;13.32;;;11.93;;
36379;SDS011;22411;53.016;18.632;2023-09-19T00:57:39;12.07;;;10.20;;
36379;SDS011;22411;53.016;18.632;2023-09-19T01:00:07;16.90;;;10.73;;
36379;SDS011;22411;53.016;18.632;2023-09-19T01:02:36;12.20;;;10.90;;
36379;SDS011;22411;53.016;18.632;2023-09-19T01:05:02;13.52;;;10.60;;
36379;SDS011;22411;53.016;18.632;2023-09-19T01:07:31;13.95;;;11.95;;
36379;SDS011;22411;53.016;18.632;2023-09-19T01:09:59;13.93;;;12.05;;
36379;SDS011;22411;53.016;18.632;2023-09-19T01:12:30;14.02;;;11.23;;
36379;SDS011;22411;53.016;18.632;2023-09-19T01:17:46;12.80;;;11.50;;
36379;SDS011;22411;53.016;18.632;2023-09-19T01:31:31;13.18;;;11.13;;
36379;SDS011;22411;53.016;18.632;2023-09-19T01:34:02;15.23;;;12.30;;
36379;SDS011;22411;53.016;18.632;2023-09-19T01:36:33;13.35;;;11.02;;
36379;SDS011;22411;53.016;18.632;2023-09-19T01:41:47;13.07;;;11.25;;
36379;SDS011;22411;53.016;18.632;2023-09-19T01:44:44;14.60;;;11.45;;
36379;SDS011;22411;53.016;18.632;2023-09-19T01:53:24;14.43;;;11.60;;
36379;SDS011;22411;53.016;18.632;2023-09-19T01:55:55;14.00;;;12.55;;
36379;SDS011;22411;53.016;18.632;2023-09-19T01:58:39;14.38;;;12.73;;
36379;SDS011;22411;53.016;18.632;2023-09-19T02:01:11;15.07;;;12.23;;
36379;SDS011;22411;53.016;18.632;2023-09-19T02:03:39;15.57;;;12.80;;
36379;SDS011;22411;53.016;18.632;2023-09-19T02:06:06;12.30;;;11.02;;
36379;SDS011;22411;53.016;18.632;2023-09-19T02:08:36;14.55;;;12.93;;
36379;SDS011;22411;53.016;18.632;2023-09-19T02:11:02;17.55;;;13.43;;
36379;SDS011;22411;53.016;18.632;2023-09-19T02:13:28;15.30;;;13.35;;
36379;SDS011;22411;53.016;18.632;2023-09-19T02:15:56;16.52;;;13.23;;
36379;SDS011;22411;53.016;18.632;2023-09-19T02:18:23;17.33;;;13.10;;
36379;SDS011;22411;53.016;18.632;2023-09-19T02:20:48;16.40;;;13.57;;
36379;SDS011;22411;53.016;18.632;2023-09-19T02:26:54;17.13;;;13.63;;
36379;SDS011;22411;53.016;18.632;2023-09-19T02:29:22;14.73;;;12.57;;
36379;SDS011;22411;53.016;18.632;2023-09-19T02:31:48;17.58;;;14.15;;
36379;SDS011;22411;53.016;18.632;2023-09-19T02:34:14;16.63;;;13.68;;
36379;SDS011;22411;53.016;18.632;2023-09-19T02:36:41;17.92;;;13.05;;
36379;SDS011;22411;53.016;18.632;2023-09-19T02:39:09;21.23;;;13.73;;
36379;SDS011;22411;53.016;18.632;2023-09-19T02:41:36;15.40;;;13.55;;
36379;SDS011;22411;53.016;18.632;2023-09-19T02:44:02;15.63;;;12.48;;
36379;SDS011;22411;53.016;18.632;2023-09-19T02:46:28;17.63;;;13.15;;
36379;SDS011;22411;53.016;18.632;2023-09-19T02:48:54;16.13;;;13.68;;
36379;SDS011;22411;53.016;18.632;2023-09-19T02:51:20;16.30;;;12.98;;
36379;SDS011;22411;53.016;18.632;2023-09-19T02:53:46;17.15;;;13.70;;
36379;SDS011;22411;53.016;18.632;2023-09-19T02:56:12;15.77;;;12.45;;
36379;SDS011;22411;53.016;18.632;2023-09-19T02:58:39;15.85;;;12.55;;
36379;SDS011;22411;53.016;18.632;2023-09-19T03:01:08;15.65;;;12.63;;
36379;SDS011;22411;53.016;18.632;2023-09-19T03:03:36;15.23;;;12.70;;
36379;SDS011;22411;53.016;18.632;2023-09-19T03:06:05;13.88;;;12.40;;
36379;SDS011;22411;53.016;18.632;2023-09-19T03:08:31;15.82;;;12.02;;
36379;SDS011;22411;53.016;18.632;2023-09-19T03:11:05;14.15;;;11.80;;
36379;SDS011;22411;53.016;18.632;2023-09-19T03:13:31;17.83;;;12.18;;
36379;SDS011;22411;53.016;18.632;2023-09-19T03:15:57;12.25;;;10.20;;
36379;SDS011;22411;53.016;18.632;2023-09-19T03:18:24;12.13;;;10.88;;
36379;SDS011;22411;53.016;18.632;2023-09-19T03:20:52;11.77;;;9.85;;
36379;SDS011;22411;53.016;18.632;2023-09-19T03:23:20;12.40;;;10.75;;
36379;SDS011;22411;53.016;18.632;2023-09-19T03:25:46;10.80;;;9.65;;
36379;SDS011;22411;53.016;18.632;2023-09-19T03:28:13;12.48;;;9.80;;
36379;SDS011;22411;53.016;18.632;2023-09-19T03:30:40;13.00;;;10.57;;
36379;SDS011;22411;53.016;18.632;2023-09-19T03:33:06;11.07;;;9.35;;
36379;SDS011;22411;53.016;18.632;2023-09-19T03:35:32;11.38;;;9.25;;
36379;SDS011;22411;53.016;18.632;2023-09-19T03:37:57;14.80;;;8.90;;
36379;SDS011;22411;53.016;18.632;2023-09-19T03:40:23;9.27;;;7.97;;
36379;SDS011;22411;53.016;18.632;2023-09-19T03:42:50;11.32;;;7.70;;
36379;SDS011;22411;53.016;18.632;2023-09-19T03:45:16;12.27;;;8.50;;
36379;SDS011;22411;53.016;18.632;2023-09-19T03:47:44;11.00;;;8.50;;
36379;SDS011;22411;53.016;18.632;2023-09-19T03:50:12;10.13;;;7.68;;
36379;SDS011;22411;53.016;18.632;2023-09-19T03:52:40;10.07;;;7.72;;
36379;SDS011;22411;53.016;18.632;2023-09-19T03:55:06;11.80;;;8.00;;
36379;SDS011;22411;53.016;18.632;2023-09-19T03:57:32;9.20;;;6.90;;
36379;SDS011;22411;53.016;18.632;2023-09-19T03:59:58;12.90;;;7.18;;
36379;SDS011;22411;53.016;18.632;2023-09-19T04:02:24;9.35;;;6.93;;
36379;SDS011;22411;53.016;18.632;2023-09-19T04:04:50;10.15;;;7.78;;
36379;SDS011;22411;53.016;18.632;2023-09-19T04:07:17;10.20;;;7.88;;
36379;SDS011;22411;53.016;18.632;2023-09-19T04:09:44;9.30;;;7.53;;
36379;SDS011;22411;53.016;18.632;2023-09-19T04:12:11;10.50;;;8.10;;
36379;SDS011;22411;53.016;18.632;2023-09-19T04:14:38;7.78;;;6.97;;
36379;SDS011;22411;53.016;18.632;2023-09-19T04:17:04;13.57;;;8.60;;
36379;SDS011;22411;53.016;18.632;2023-09-19T04:19:30;9.85;;;7.28;;
36379;SDS011;22411;53.016;18.632;2023-09-19T04:21:56;7.90;;;6.43;;
36379;SDS011;22411;53.016;18.632;2023-09-19T04:24:22;7.60;;;6.03;;
36379;SDS011;22411;53.016;18.632;2023-09-19T04:26:48;10.00;;;6.40;;
36379;SDS011;22411;53.016;18.632;2023-09-19T04:29:14;9.15;;;6.47;;
36379;SDS011;22411;53.016;18.632;2023-09-19T04:31:40;8.77;;;5.78;;
36379;SDS011;22411;53.016;18.632;2023-09-19T04:34:06;10.55;;;6.80;;
36379;SDS011;22411;53.016;18.632;2023-09-19T04:36:34;8.60;;;6.72;;
36379;SDS011;22411;53.016;18.632;2023-09-19T04:39:02;9.52;;;7.45;;
36379;SDS011;22411;53.016;18.632;2023-09-19T04:41:33;8.93;;;6.43;;
36379;SDS011;22411;53.016;18.632;2023-09-19T04:43:59;8.45;;;7.35;;
36379;SDS011;22411;53.016;18.632;2023-09-19T04:46:25;12.80;;;7.18;;
36379;SDS011;22411;53.016;18.632;2023-09-19T04:48:51;7.70;;;6.15;;
36379;SDS011;22411;53.016;18.632;2023-09-19T04:51:17;8.93;;;6.72;;
36379;SDS011;22411;53.016;18.632;2023-09-19T04:53:44;8.63;;;6.32;;
36379;SDS011;22411;53.016;18.632;2023-09-19T04:56:10;9.13;;;6.43;;
36379;SDS011;22411;53.016;18.632;2023-09-19T04:58:35;7.75;;;6.07;;
36379;SDS011;22411;53.016;18.632;2023-09-19T05:01:01;7.45;;;5.22;;
36379;SDS011;22411;53.016;18.632;2023-09-19T05:03:28;5.88;;;4.72;;
36379;SDS011;22411;53.016;18.632;2023-09-19T05:05:53;10.38;;;4.68;;
36379;SDS011;22411;53.016;18.632;2023-09-19T05:08:19;7.30;;;4.03;;
36379;SDS011;22411;53.016;18.632;2023-09-19T05:10:45;7.10;;;4.07;;
36379;SDS011;22411;53.016;18.632;2023-09-19T05:13:10;8.27;;;4.47;;
36379;SDS011;22411;53.016;18.632;2023-09-19T05:15:37;6.40;;;5.03;;
36379;SDS011;22411;53.016;18.632;2023-09-19T05:18:04;11.02;;;6.85;;
36379;SDS011;22411;53.016;18.632;2023-09-19T05:20:31;7.95;;;5.05;;
36379;SDS011;22411;53.016;18.632;2023-09-19T05:22:59;6.85;;;5.10;;
36379;SDS011;22411;53.016;18.632;2023-09-19T05:25:31;10.40;;;4.95;;
36379;SDS011;22411;53.016;18.632;2023-09-19T05:28:00;7.13;;;4.05;;
36379;SDS011;22411;53.016;18.632;2023-09-19T05:30:29;7.10;;;5.15;;
36379;SDS011;22411;53.016;18.632;2023-09-19T05:32:55;5.55;;;4.15;;
36379;SDS011;22411;53.016;18.632;2023-09-19T05:35:22;9.02;;;4.88;;
36379;SDS011;22411;53.016;18.632;2023-09-19T05:37:50;5.68;;;3.60;;
36379;SDS011;22411;53.016;18.632;2023-09-19T05:40:19;8.18;;;5.30;;
36379;SDS011;22411;53.016;18.632;2023-09-19T05:42:45;9.85;;;5.18;;
36379;SDS011;22411;53.016;18.632;2023-09-19T05:45:12;8.15;;;5.75;;
36379;SDS011;22411;53.016;18.632;2023-09-19T05:47:42;5.20;;;3.95;;
36379;SDS011;22411;53.016;18.632;2023-09-19T05:50:10;6.32;;;4.25;;
36379;SDS011;22411;53.016;18.632;2023-09-19T05:52:35;6.85;;;3.22;;
36379;SDS011;22411;53.016;18.632;2023-09-19T05:55:05;5.57;;;3.00;;
36379;SDS011;22411;53.016;18.632;2023-09-19T05:57:33;5.10;;;4.03;;
36379;SDS011;22411;53.016;18.632;2023-09-19T06:00:05;4.78;;;3.65;;
36379;SDS011;22411;53.016;18.632;2023-09-19T06:02:36;6.38;;;3.38;;
36379;SDS011;22411;53.016;18.632;2023-09-19T06:05:06;5.35;;;3.22;;
36379;SDS011;22411;53.016;18.632;2023-09-19T06:07:35;4.68;;;3.05;;
36379;SDS011;22411;53.016;18.632;2023-09-19T06:10:04;6.05;;;2.65;;
36379;SDS011;22411;53.016;18.632;2023-09-19T06:12:37;8.05;;;3.10;;
36379;SDS011;22411;53.016;18.632;2023-09-19T06:15:04;5.45;;;2.97;;
36379;SDS011;22411;53.016;18.632;2023-09-19T06:17:31;7.68;;;3.25;;
36379;SDS011;22411;53.016;18.632;2023-09-19T06:19:57;7.13;;;3.65;;
36379;SDS011;22411;53.016;18.632;2023-09-19T06:22:22;6.53;;;4.25;;
36379;SDS011;22411;53.016;18.632;2023-09-19T06:24:49;8.00;;;3.35;;
36379;SDS011;22411;53.016;18.632;2023-09-19T06:27:15;4.90;;;2.92;;
36379;SDS011;22411;53.016;18.632;2023-09-19T06:29:41;4.82;;;2.90;;
36379;SDS011;22411;53.016;18.632;2023-09-19T06:32:07;6.63;;;3.63;;
36379;SDS011;22411;53.016;18.632;2023-09-19T06:34:34;4.38;;;2.28;;
36379;SDS011;22411;53.016;18.632;2023-09-19T06:37:00;4.50;;;2.60;;
36379;SDS011;22411;53.016;18.632;2023-09-19T06:39:26;5.55;;;2.85;;
36379;SDS011;22411;53.016;18.632;2023-09-19T06:41:51;4.82;;;2.90;;
36379;SDS011;22411;53.016;18.632;2023-09-19T06:44:21;5.15;;;3.60;;
36379;SDS011;22411;53.016;18.632;2023-09-19T06:46:50;5.10;;;2.83;;
36379;SDS011;22411;53.016;18.632;2023-09-19T06:49:17;3.20;;;2.50;;
36379;SDS011;22411;53.016;18.632;2023-09-19T06:51:43;5.22;;;2.80;;
36379;SDS011;22411;53.016;18.632;2023-09-19T06:54:09;4.75;;;2.78;;
36379;SDS011;22411;53.016;18.632;2023-09-19T06:56:35;5.93;;;2.75;;
36379;SDS011;22411;53.016;18.632;2023-09-19T06:59:01;3.65;;;2.10;;
36379;SDS011;22411;53.016;18.632;2023-09-19T07:01:28;3.05;;;1.98;;
36379;SDS011;22411;53.016;18.632;2023-09-19T07:03:54;4.78;;;2.83;;
36379;SDS011;22411;53.016;18.632;2023-09-19T07:06:20;4.90;;;2.80;;
36379;SDS011;22411;53.016;18.632;2023-09-19T07:08:46;4.18;;;2.42;;
36379;SDS011;22411;53.016;18.632;2023-09-19T07:11:12;6.80;;;2.67;;
36379;SDS011;22411;53.016;18.632;2023-09-19T07:13:38;5.25;;;2.33;;
36379;SDS011;22411;53.016;18.632;2023-09-19T07:16:04;4.63;;;2.90;;
36379;SDS011;22411;53.016;18.632;2023-09-19T07:18:30;4.13;;;3.15;;
36379;SDS011;22411;53.016;18.632;2023-09-19T07:20:59;6.43;;;2.95;;
36379;SDS011;22411;53.016;18.632;2023-09-19T07:23:31;6.28;;;2.90;;
36379;SDS011;22411;53.016;18.632;2023-09-19T07:26:00;4.45;;;2.95;;
36379;SDS011;22411;53.016;18.632;2023-09-19T07:28:26;2.72;;;2.53;;
36379;SDS011;22411;53.016;18.632;2023-09-19T07:30:53;4.88;;;2.45;;
36379;SDS011;22411;53.016;18.632;2023-09-19T07:33:19;5.72;;;2.80;;
36379;SDS011;22411;53.016;18.632;2023-09-19T07:35:45;6.25;;;3.92;;
36379;SDS011;22411;53.016;18.632;2023-09-19T07:38:12;3.22;;;2.92;;
36379;SDS011;22411;53.016;18.632;2023-09-19T07:40:38;4.70;;;2.45;;
36379;SDS011;22411;53.016;18.632;2023-09-19T07:43:04;3.65;;;3.25;;
36379;SDS011;22411;53.016;18.632;2023-09-19T07:45:32;4.00;;;3.13;;
36379;SDS011;22411;53.016;18.632;2023-09-19T07:47:58;3.67;;;3.10;;
36379;SDS011;22411;53.016;18.632;2023-09-19T07:50:26;4.00;;;2.80;;
36379;SDS011;22411;53.016;18.632;2023-09-19T07:52:52;4.07;;;3.25;;
36379;SDS011;22411;53.016;18.632;2023-09-19T07:55:18;3.58;;;2.78;;
36379;SDS011;22411;53.016;18.632;2023-09-19T07:57:49;3.80;;;3.05;;
36379;SDS011;22411;53.016;18.632;2023-09-19T08:00:14;5.63;;;4.03;;
36379;SDS011;22411;53.016;18.632;2023-09-19T08:02:41;6.07;;;3.50;;
36379;SDS011;22411;53.016;18.632;2023-09-19T08:05:11;5.10;;;4.07;;
36379;SDS011;22411;53.016;18.632;2023-09-19T08:07:41;6.18;;;2.90;;
36379;SDS011;22411;53.016;18.632;2023-09-19T08:10:08;4.35;;;3.42;;
36379;SDS011;22411;53.016;18.632;2023-09-19T08:12:42;4.22;;;3.25;;
36379;SDS011;22411;53.016;18.632;2023-09-19T08:15:14;3.45;;;3.05;;
36379;SDS011;22411;53.016;18.632;2023-09-19T08:17:42;4.70;;;3.15;;
36379;SDS011;22411;53.016;18.632;2023-09-19T08:20:08;4.78;;;3.72;;
36379;SDS011;22411;53.016;18.632;2023-09-19T08:22:48;5.45;;;3.35;;
36379;SDS011;22411;53.016;18.632;2023-09-19T08:25:17;4.45;;;3.55;;
36379;SDS011;22411;53.016;18.632;2023-09-19T08:27:44;4.40;;;3.85;;
36379;SDS011;22411;53.016;18.632;2023-09-19T08:30:21;5.25;;;3.83;;
36379;SDS011;22411;53.016;18.632;2023-09-19T08:32:50;3.72;;;3.42;;
36379;SDS011;22411;53.016;18.632;2023-09-19T08:35:16;4.57;;;4.10;;
36379;SDS011;22411;53.016;18.632;2023-09-19T08:37:42;6.35;;;3.60;;
36379;SDS011;22411;53.016;18.632;2023-09-19T08:40:10;7.35;;;3.28;;
36379;SDS011;22411;53.016;18.632;2023-09-19T08:42:48;4.65;;;2.90;;
36379;SDS011;22411;53.016;18.632;2023-09-19T08:45:15;6.00;;;4.43;;
36379;SDS011;22411;53.016;18.632;2023-09-19T08:51:21;3.60;;;3.30;;
36379;SDS011;22411;53.016;18.632;2023-09-19T08:53:42;5.50;;;3.63;;
36379;SDS011;22411;53.016;18.632;2023-09-19T08:56:16;5.13;;;3.13;;
36379;SDS011;22411;53.016;18.632;2023-09-19T08:59:16;5.57;;;3.67;;
36379;SDS011;22411;53.016;18.632;2023-09-19T09:01:36;5.07;;;3.72;;
36379;SDS011;22411;53.016;18.632;2023-09-19T09:04:07;7.22;;;4.00;;
36379;SDS011;22411;53.016;18.632;2023-09-19T09:06:38;3.85;;;3.28;;
36379;SDS011;22411;53.016;18.632;2023-09-19T09:09:05;4.45;;;3.65;;
36379;SDS011;22411;53.016;18.632;2023-09-19T09:11:32;4.07;;;3.75;;
36379;SDS011;22411;53.016;18.632;2023-09-19T09:13:59;4.95;;;4.45;;
36379;SDS011;22411;53.016;18.632;2023-09-19T09:16:25;5.55;;;4.88;;
36379;SDS011;22411;53.016;18.632;2023-09-19T09:18:51;6.47;;;4.47;;
36379;SDS011;22411;53.016;18.632;2023-09-19T09:21:21;5.15;;;4.68;;
36379;SDS011;22411;53.016;18.632;2023-09-19T09:23:48;4.45;;;4.05;;
36379;SDS011;22411;53.016;18.632;2023-09-19T09:26:15;5.78;;;4.55;;
36379;SDS011;22411;53.016;18.632;2023-09-19T09:28:45;4.68;;;4.32;;
36379;SDS011;22411;53.016;18.632;2023-09-19T09:31:22;5.50;;;3.30;;
36379;SDS011;22411;53.016;18.632;2023-09-19T09:33:55;5.75;;;4.38;;
36379;SDS011;22411;53.016;18.632;2023-09-19T09:36:34;3.90;;;3.60;;
36379;SDS011;22411;53.016;18.632;2023-09-19T09:41:41;4.45;;;2.67;;
36379;SDS011;22411;53.016;18.632;2023-09-19T09:44:14;3.53;;;2.88;;
36379;SDS011;22411;53.016;18.632;2023-09-19T09:46:46;3.85;;;2.38;;
36379;SDS011;22411;53.016;18.632;2023-09-19T09:49:36;5.30;;;2.67;;
36379;SDS011;22411;53.016;18.632;2023-09-19T09:52:05;2.50;;;2.30;;
36379;SDS011;22411;53.016;18.632;2023-09-19T09:57:03;2.33;;;1.48;;
36379;SDS011;22411;53.016;18.632;2023-09-19T09:59:55;2.42;;;1.20;;
36379;SDS011;22411;53.016;18.632;2023-09-19T10:02:37;2.33;;;1.10;;
36379;SDS011;22411;53.016;18.632;2023-09-19T10:07:46;2.05;;;1.13;;
36379;SDS011;22411;53.016;18.632;2023-09-19T10:10:36;2.38;;;0.70;;
36379;SDS011;22411;53.016;18.632;2023-09-19T10:13:06;2.38;;;2.17;;
36379;SDS011;22411;53.016;18.632;2023-09-19T10:15:38;3.97;;;0.88;;
36379;SDS011;22411;53.016;18.632;2023-09-19T10:18:06;2.42;;;0.70;;
36379;SDS011;22411;53.016;18.632;2023-09-19T10:20:39;3.57;;;1.43;;
36379;SDS011;22411;53.016;18.632;2023-09-19T10:23:10;3.17;;;0.82;;
36379;SDS011;22411;53.016;18.632;2023-09-19T10:25:39;3.22;;;0.80;;
36379;SDS011;22411;53.016;18.632;2023-09-19T10:28:06;1.90;;;0.70;;
36379;SDS011;22411;53.016;18.632;2023-09-19T10:33:16;2.92;;;0.77;;
36379;SDS011;22411;53.016;18.632;2023-09-19T10:35:44;2.30;;;0.55;;
36379;SDS011;22411;53.016;18.632;2023-09-19T10:38:11;2.33;;;1.10;;
36379;SDS011;22411;53.016;18.632;2023-09-19T10:40:38;2.22;;;0.68;;
36379;SDS011;22411;53.016;18.632;2023-09-19T10:43:12;1.40;;;0.70;;
36379;SDS011;22411;53.016;18.632;2023-09-19T10:45:43;2.90;;;0.63;;
36379;SDS011;22411;53.016;18.632;2023-09-19T10:48:10;4.43;;;0.95;;
36379;SDS011;22411;53.016;18.632;2023-09-19T10:56:08;1.48;;;0.60;;
36379;SDS011;22411;53.016;18.632;2023-09-19T10:58:39;2.88;;;0.65;;
36379;SDS011;22411;53.016;18.632;2023-09-19T11:01:10;2.28;;;0.95;;
36379;SDS011;22411;53.016;18.632;2023-09-19T11:03:43;1.17;;;0.63;;
36379;SDS011;22411;53.016;18.632;2023-09-19T11:06:16;1.90;;;0.80;;
36379;SDS011;22411;53.016;18.632;2023-09-19T11:11:44;1.40;;;0.43;;
36379;SDS011;22411;53.016;18.632;2023-09-19T11:30:44;2.95;;;0.40;;
36379;SDS011;22411;53.016;18.632;2023-09-19T11:33:18;1.95;;;0.50;;
36379;SDS011;22411;53.016;18.632;2023-09-19T11:41:36;1.85;;;0.30;;
36379;SDS011;22411;53.016;18.632;2023-09-19T11:46:51;1.25;;;0.30;;
36379;SDS011;22411;53.016;18.632;2023-09-19T11:49:40;0.73;;;0.22;;
36379;SDS011;22411;53.016;18.632;2023-09-19T11:52:05;2.08;;;0.47;;
36379;SDS011;22411;53.016;18.632;2023-09-19T11:54:34;2.10;;;0.30;;
36379;SDS011;22411;53.016;18.632;2023-09-19T11:57:02;0.82;;;0.30;;
36379;SDS011;22411;53.016;18.632;2023-09-19T11:59:29;1.80;;;0.30;;
36379;SDS011;22411;53.016;18.632;2023-09-19T12:01:56;4.57;;;0.40;;
36379;SDS011;22411;53.016;18.632;2023-09-19T12:04:33;1.52;;;0.30;;
36379;SDS011;22411;53.016;18.632;2023-09-19T12:07:21;1.40;;;0.28;;
36379;SDS011;22411;53.016;18.632;2023-09-19T12:09:48;1.40;;;0.30;;
36379;SDS011;22411;53.016;18.632;2023-09-19T12:12:22;2.55;;;0.30;;
36379;SDS011;22411;53.016;18.632;2023-09-19T12:14:49;0.98;;;0.30;;
36379;SDS011;22411;53.016;18.632;2023-09-19T12:17:16;1.77;;;0.20;;
36379;SDS011;22411;53.016;18.632;2023-09-19T12:19:56;2.22;;;0.25;;
36379;SDS011;22411;53.016;18.632;2023-09-19T12:22:22;1.05;;;0.40;;
36379;SDS011;22411;53.016;18.632;2023-09-19T12:24:48;1.35;;;0.30;;
36379;SDS011;22411;53.016;18.632;2023-09-19T12:27:15;1.15;;;0.30;;
36379;SDS011;22411;53.016;18.632;2023-09-19T12:29:48;2.55;;;0.30;;
36379;SDS011;22411;53.016;18.632;2023-09-19T12:32:14;1.23;;;0.30;;
36379;SDS011;22411;53.016;18.632;2023-09-19T12:34:42;1.38;;;0.30;;
36379;SDS011;22411;53.016;18.632;2023-09-19T12:37:15;1.38;;;0.43;;
36379;SDS011;22411;53.016;18.632;2023-09-19T12:39:46;2.10;;;0.30;;
36379;SDS011;22411;53.016;18.632;2023-09-19T12:42:17;2.28;;;0.30;;
36379;SDS011;22411;53.016;18.632;2023-09-19T12:44:48;1.77;;;0.40;;
36379;SDS011;22411;53.016;18.632;2023-09-19T12:47:20;2.13;;;0.30;;
36379;SDS011;22411;53.016;18.632;2023-09-19T12:52:45;1.42;;;0.40;;
36379;SDS011;22411;53.016;18.632;2023-09-19T12:55:20;1.80;;;0.40;;
36379;SDS011;22411;53.016;18.632;2023-09-19T13:00:41;1.13;;;0.20;;
36379;SDS011;22411;53.016;18.632;2023-09-19T13:08:21;2.67;;;0.68;;
36379;SDS011;22411;53.016;18.632;2023-09-19T13:13:37;2.08;;;0.30;;
36379;SDS011;22411;53.016;18.632;2023-09-19T13:16:09;2.25;;;0.40;;
36379;SDS011;22411;53.016;18.632;2023-09-19T13:18:43;1.20;;;0.30;;
36379;SDS011;22411;53.016;18.632;2023-09-19T13:21:29;1.27;;;0.30;;
36379;SDS011;22411;53.016;18.632;2023-09-19T13:27:05;2.25;;;0.30;;
36379;SDS011;22411;53.016;18.632;2023-09-19T13:29:32;1.10;;;0.20;;
36379;SDS011;22411;53.016;18.632;2023-09-19T13:31:58;1.30;;;0.30;;
36379;SDS011;22411;53.016;18.632;2023-09-19T13:34:23;2.35;;;0.30;;
36379;SDS011;22411;53.016;18.632;2023-09-19T13:36:50;0.88;;;0.30;;
36379;SDS011;22411;53.016;18.632;2023-09-19T13:39:16;1.58;;;0.47;;
36379;SDS011;22411;53.016;18.632;2023-09-19T13:41:46;0.90;;;0.30;;
36379;SDS011;22411;53.016;18.632;2023-09-19T13:44:12;1.90;;;0.52;;
36379;SDS011;22411;53.016;18.632;2023-09-19T13:46:39;4.55;;;0.52;;
36379;SDS011;22411;53.016;18.632;2023-09-19T13:49:06;2.10;;;0.30;;
36379;SDS011;22411;53.016;18.632;2023-09-19T13:51:31;1.88;;;0.40;;
36379;SDS011;22411;53.016;18.632;2023-09-19T13:53:57;3.00;;;0.32;;
36379;SDS011;22411;53.016;18.632;2023-09-19T13:56:25;3.88;;;0.30;;
36379;SDS011;22411;53.016;18.632;2023-09-19T13:58:53;2.17;;;0.70;;
36379;SDS011;22411;53.016;18.632;2023-09-19T14:01:20;3.05;;;0.93;;
36379;SDS011;22411;53.016;18.632;2023-09-19T14:03:45;2.22;;;0.50;;
36379;SDS011;22411;53.016;18.632;2023-09-19T14:06:12;2.65;;;0.65;;
36379;SDS011;22411;53.016;18.632;2023-09-19T14:08:38;3.30;;;0.47;;
36379;SDS011;22411;53.016;18.632;2023-09-19T14:11:08;3.28;;;0.70;;
36379;SDS011;22411;53.016;18.632;2023-09-19T14:13:34;1.95;;;0.40;;
36379;SDS011;22411;53.016;18.632;2023-09-19T14:16:06;2.75;;;0.75;;
36379;SDS011;22411;53.016;18.632;2023-09-19T14:18:34;1.73;;;0.47;;
36379;SDS011;22411;53.016;18.632;2023-09-19T14:21:03;1.60;;;0.35;;
36379;SDS011;22411;53.016;18.632;2023-09-19T14:23:33;2.83;;;0.40;;
36379;SDS011;22411;53.016;18.632;2023-09-19T14:26:01;1.50;;;0.40;;
36379;SDS011;22411;53.016;18.632;2023-09-19T14:28:27;1.52;;;0.40;;
36379;SDS011;22411;53.016;18.632;2023-09-19T14:30:55;2.97;;;0.40;;
36379;SDS011;22411;53.016;18.632;2023-09-19T14:33:21;2.10;;;0.50;;
36379;SDS011;22411;53.016;18.632;2023-09-19T14:35:47;2.33;;;0.45;;
36379;SDS011;22411;53.016;18.632;2023-09-19T14:38:12;2.33;;;1.30;;
36379;SDS011;22411;53.016;18.632;2023-09-19T14:40:38;1.38;;;0.45;;
36379;SDS011;22411;53.016;18.632;2023-09-19T14:43:04;2.47;;;0.38;;
36379;SDS011;22411;53.016;18.632;2023-09-19T14:45:30;2.88;;;0.43;;
36379;SDS011;22411;53.016;18.632;2023-09-19T14:47:56;1.35;;;0.40;;
36379;SDS011;22411;53.016;18.632;2023-09-19T14:50:22;1.80;;;0.70;;
36379;SDS011;22411;53.016;18.632;2023-09-19T14:52:49;2.30;;;0.50;;
36379;SDS011;22411;53.016;18.632;2023-09-19T14:55:17;1.25;;;0.47;;
36379;SDS011;22411;53.016;18.632;2023-09-19T14:57:48;1.50;;;0.40;;
36379;SDS011;22411;53.016;18.632;2023-09-19T15:00:16;2.80;;;0.60;;
36379;SDS011;22411;53.016;18.632;2023-09-19T15:02:42;1.42;;;0.30;;
36379;SDS011;22411;53.016;18.632;2023-09-19T15:05:10;1.60;;;0.40;;
36379;SDS011;22411;53.016;18.632;2023-09-19T15:07:36;3.53;;;0.43;;
36379;SDS011;22411;53.016;18.632;2023-09-19T15:10:04;0.98;;;0.30;;
36379;SDS011;22411;53.016;18.632;2023-09-19T15:12:32;3.25;;;0.85;;
36379;SDS011;22411;53.016;18.632;2023-09-19T15:14:58;1.98;;;0.60;;
36379;SDS011;22411;53.016;18.632;2023-09-19T15:17:24;3.20;;;0.60;;
36379;SDS011;22411;53.016;18.632;2023-09-19T15:19:51;2.17;;;0.57;;
36379;SDS011;22411;53.016;18.632;2023-09-19T15:22:16;2.10;;;0.50;;
36379;SDS011;22411;53.016;18.632;2023-09-19T15:24:42;2.15;;;0.47;;
36379;SDS011;22411;53.016;18.632;2023-09-19T15:27:08;7.70;;;0.70;;
36379;SDS011;22411;53.016;18.632;2023-09-19T15:29:34;4.45;;;1.58;;
36379;SDS011;22411;53.016;18.632;2023-09-19T15:31:59;2.30;;;0.95;;
36379;SDS011;22411;53.016;18.632;2023-09-19T15:34:28;3.53;;;0.73;;
36379;SDS011;22411;53.016;18.632;2023-09-19T15:36:55;2.60;;;0.82;;
36379;SDS011;22411;53.016;18.632;2023-09-19T15:39:20;1.67;;;0.40;;
36379;SDS011;22411;53.016;18.632;2023-09-19T15:41:47;2.97;;;0.60;;
36379;SDS011;22411;53.016;18.632;2023-09-19T15:44:17;2.65;;;0.65;;
36379;SDS011;22411;53.016;18.632;2023-09-19T15:46:44;2.95;;;0.52;;
36379;SDS011;22411;53.016;18.632;2023-09-19T15:49:10;3.78;;;0.70;;
36379;SDS011;22411;53.016;18.632;2023-09-19T15:51:36;3.72;;;0.95;;
36379;SDS011;22411;53.016;18.632;2023-09-19T15:54:10;2.72;;;0.63;;
36379;SDS011;22411;53.016;18.632;2023-09-19T15:56:39;3.45;;;1.23;;
36379;SDS011;22411;53.016;18.632;2023-09-19T15:59:06;3.03;;;0.55;;
36379;SDS011;22411;53.016;18.632;2023-09-19T16:01:34;1.48;;;0.80;;
36379;SDS011;22411;53.016;18.632;2023-09-19T16:04:00;5.28;;;1.40;;
36379;SDS011;22411;53.016;18.632;2023-09-19T16:06:26;3.63;;;0.50;;